sensor_id;sensor_type;location;lat;lon;timestamp;P1;durP1;ratioP1;P2;durP2;ratioP2
79670;SDS011;69137;50.878;8.050;2023-11-19T00:00:49;5.45;;;3.47;;
79670;SDS011;69137;50.878;8.050;2023-11-19T00:03:16;6.80;;;3.70;;
79670;SDS011;69137;50.878;8.050;2023-11-19T00:05:41;6.70;;;5.18;;
79670;SDS011;69137;50.878;8.050;2023-11-19T00:08:06;4.82;;;3.13;;
79670;SDS011;69137;50.878;8.050;2023-11-19T00:10:33;3.75;;;2.30;;
79670;SDS011;69137;50.878;8.050;2023-11-19T00:12:59;3.05;;;1.92;;
79670;SDS011;69137;50.878;8.050;2023-11-19T00:15:24;3.03;;;1.95;;
79670;SDS011;69137;50.878;8.050;2023-11-19T00:17:50;7.50;;;3.55;;
79670;SDS011;69137;50.878;8.050;2023-11-19T00:20:18;5.28;;;3.83;;
79670;SDS011;69137;50.878;8.050;2023-11-19T00:22:44;5.05;;;3.10;;
79670;SDS011;69137;50.878;8.050;2023-11-19T00:25:16;3.03;;;1.83;;
79670;SDS011;69137;50.878;8.050;2023-11-19T00:27:43;2.28;;;1.40;;
79670;SDS011;69137;50.878;8.050;2023-11-19T00:32:36;2.45;;;1.65;;
79670;SDS011;69137;50.878;8.050;2023-11-19T00:35:04;2.10;;;1.70;;
79670;SDS011;69137;50.878;8.050;2023-11-19T00:37:33;4.70;;;2.17;;
79670;SDS011;69137;50.878;8.050;2023-11-19T00:39:59;4.75;;;4.22;;
79670;SDS011;69137;50.878;8.050;2023-11-19T00:42:24;2.40;;;1.80;;
79670;SDS011;69137;50.878;8.050;2023-11-19T00:44:50;1.85;;;1.30;;
79670;SDS011;69137;50.878;8.050;2023-11-19T00:47:16;2.10;;;1.40;;
79670;SDS011;69137;50.878;8.050;2023-11-19T00:49:45;2.47;;;1.40;;
79670;SDS011;69137;50.878;8.050;2023-11-19T00:52:13;3.08;;;1.67;;
79670;SDS011;69137;50.878;8.050;2023-11-19T00:54:39;4.75;;;1.90;;
79670;SDS011;69137;50.878;8.050;2023-11-19T00:57:04;3.25;;;2.13;;
79670;SDS011;69137;50.878;8.050;2023-11-19T00:59:30;6.22;;;2.47;;
79670;SDS011;69137;50.878;8.050;2023-11-19T01:01:56;4.47;;;2.03;;
79670;SDS011;69137;50.878;8.050;2023-11-19T01:04:21;2.65;;;1.60;;
79670;SDS011;69137;50.878;8.050;2023-11-19T01:06:49;3.78;;;2.30;;
79670;SDS011;69137;50.878;8.050;2023-11-19T01:09:15;2.90;;;1.63;;
79670;SDS011;69137;50.878;8.050;2023-11-19T01:11:43;1.65;;;1.00;;
79670;SDS011;69137;50.878;8.050;2023-11-19T01:14:08;1.10;;;0.93;;
79670;SDS011;69137;50.878;8.050;2023-11-19T01:16:34;1.08;;;0.98;;
79670;SDS011;69137;50.878;8.050;2023-11-19T01:18:59;2.97;;;1.80;;
79670;SDS011;69137;50.878;8.050;2023-11-19T01:21:29;3.05;;;1.67;;
79670;SDS011;69137;50.878;8.050;2023-11-19T01:23:54;1.90;;;1.20;;
79670;SDS011;69137;50.878;8.050;2023-11-19T01:26:20;2.05;;;1.10;;
79670;SDS011;69137;50.878;8.050;2023-11-19T01:28:45;2.72;;;1.20;;
79670;SDS011;69137;50.878;8.050;2023-11-19T01:31:15;2.90;;;1.90;;
79670;SDS011;69137;50.878;8.050;2023-11-19T01:33:41;1.25;;;0.95;;
79670;SDS011;69137;50.878;8.050;2023-11-19T01:36:09;2.17;;;1.38;;
79670;SDS011;69137;50.878;8.050;2023-11-19T01:38:37;1.33;;;1.00;;
79670;SDS011;69137;50.878;8.050;2023-11-19T01:41:03;2.13;;;1.30;;
79670;SDS011;69137;50.878;8.050;2023-11-19T01:43:38;2.40;;;1.08;;
79670;SDS011;69137;50.878;8.050;2023-11-19T01:46:07;1.10;;;0.85;;
79670;SDS011;69137;50.878;8.050;2023-11-19T01:48:37;1.08;;;0.85;;
79670;SDS011;69137;50.878;8.050;2023-11-19T01:51:08;1.13;;;0.90;;
79670;SDS011;69137;50.878;8.050;2023-11-19T01:53:34;0.73;;;0.68;;
79670;SDS011;69137;50.878;8.050;2023-11-19T01:56:02;1.45;;;1.00;;
79670;SDS011;69137;50.878;8.050;2023-11-19T01:58:28;1.88;;;1.08;;
79670;SDS011;69137;50.878;8.050;2023-11-19T02:00:55;1.10;;;1.00;;
79670;SDS011;69137;50.878;8.050;2023-11-19T02:03:21;1.23;;;0.80;;
79670;SDS011;69137;50.878;8.050;2023-11-19T02:05:47;1.80;;;0.77;;
79670;SDS011;69137;50.878;8.050;2023-11-19T02:08:14;1.80;;;0.80;;
79670;SDS011;69137;50.878;8.050;2023-11-19T02:10:39;2.28;;;0.90;;
79670;SDS011;69137;50.878;8.050;2023-11-19T02:13:05;0.80;;;0.80;;
79670;SDS011;69137;50.878;8.050;2023-11-19T02:15:31;0.90;;;0.80;;
79670;SDS011;69137;50.878;8.050;2023-11-19T02:18:10;0.80;;;0.80;;
79670;SDS011;69137;50.878;8.050;2023-11-19T02:20:46;0.93;;;0.63;;
79670;SDS011;69137;50.878;8.050;2023-11-19T02:23:13;3.10;;;0.90;;
79670;SDS011;69137;50.878;8.050;2023-11-19T02:25:38;3.53;;;1.05;;
79670;SDS011;69137;50.878;8.050;2023-11-19T02:28:05;2.40;;;1.08;;
79670;SDS011;69137;50.878;8.050;2023-11-19T02:30:32;1.08;;;0.80;;
79670;SDS011;69137;50.878;8.050;2023-11-19T02:33:00;0.88;;;0.80;;
79670;SDS011;69137;50.878;8.050;2023-11-19T02:35:30;4.45;;;1.10;;
79670;SDS011;69137;50.878;8.050;2023-11-19T02:37:57;1.60;;;1.02;;
79670;SDS011;69137;50.878;8.050;2023-11-19T02:40:24;0.80;;;0.80;;
79670;SDS011;69137;50.878;8.050;2023-11-19T02:42:52;2.17;;;1.00;;
79670;SDS011;69137;50.878;8.050;2023-11-19T02:45:19;1.10;;;0.80;;
79670;SDS011;69137;50.878;8.050;2023-11-19T02:47:44;1.60;;;0.65;;
79670;SDS011;69137;50.878;8.050;2023-11-19T02:50:10;1.35;;;0.90;;
79670;SDS011;69137;50.878;8.050;2023-11-19T02:52:42;1.70;;;0.93;;
79670;SDS011;69137;50.878;8.050;2023-11-19T02:55:08;1.90;;;0.82;;
79670;SDS011;69137;50.878;8.050;2023-11-19T02:57:37;3.53;;;1.00;;
79670;SDS011;69137;50.878;8.050;2023-11-19T03:00:14;2.28;;;0.77;;
79670;SDS011;69137;50.878;8.050;2023-11-19T03:02:41;1.23;;;0.90;;
79670;SDS011;69137;50.878;8.050;2023-11-19T03:05:15;1.10;;;0.88;;
79670;SDS011;69137;50.878;8.050;2023-11-19T03:07:41;1.42;;;0.80;;
79670;SDS011;69137;50.878;8.050;2023-11-19T03:10:11;1.50;;;0.95;;
79670;SDS011;69137;50.878;8.050;2023-11-19T03:12:39;2.28;;;1.13;;
79670;SDS011;69137;50.878;8.050;2023-11-19T03:15:05;6.47;;;1.05;;
79670;SDS011;69137;50.878;8.050;2023-11-19T03:17:32;1.65;;;0.90;;
79670;SDS011;69137;50.878;8.050;2023-11-19T03:19:58;1.30;;;0.98;;
79670;SDS011;69137;50.878;8.050;2023-11-19T03:22:23;0.70;;;0.60;;
79670;SDS011;69137;50.878;8.050;2023-11-19T03:24:50;1.58;;;0.73;;
79670;SDS011;69137;50.878;8.050;2023-11-19T03:27:16;1.42;;;0.88;;
79670;SDS011;69137;50.878;8.050;2023-11-19T03:29:41;1.83;;;0.82;;
79670;SDS011;69137;50.878;8.050;2023-11-19T03:32:07;2.35;;;1.05;;
79670;SDS011;69137;50.878;8.050;2023-11-19T03:34:32;0.95;;;0.80;;
79670;SDS011;69137;50.878;8.050;2023-11-19T03:36:58;0.80;;;0.80;;
79670;SDS011;69137;50.878;8.050;2023-11-19T03:39:23;0.75;;;0.75;;
79670;SDS011;69137;50.878;8.050;2023-11-19T03:41:50;0.98;;;0.80;;
79670;SDS011;69137;50.878;8.050;2023-11-19T03:44:16;1.13;;;0.90;;
79670;SDS011;69137;50.878;8.050;2023-11-19T03:46:41;1.73;;;0.90;;
79670;SDS011;69137;50.878;8.050;2023-11-19T03:49:07;1.38;;;1.08;;
79670;SDS011;69137;50.878;8.050;2023-11-19T03:51:33;1.15;;;0.85;;
79670;SDS011;69137;50.878;8.050;2023-11-19T03:53:59;3.13;;;0.80;;
79670;SDS011;69137;50.878;8.050;2023-11-19T03:56:25;0.52;;;0.50;;
79670;SDS011;69137;50.878;8.050;2023-11-19T03:58:52;1.00;;;0.82;;
79670;SDS011;69137;50.878;8.050;2023-11-19T04:01:17;1.33;;;0.90;;
79670;SDS011;69137;50.878;8.050;2023-11-19T04:03:43;3.78;;;1.00;;
79670;SDS011;69137;50.878;8.050;2023-11-19T04:06:08;3.25;;;0.90;;
79670;SDS011;69137;50.878;8.050;2023-11-19T04:08:34;3.30;;;1.00;;
79670;SDS011;69137;50.878;8.050;2023-11-19T04:11:00;1.50;;;0.88;;
79670;SDS011;69137;50.878;8.050;2023-11-19T04:13:26;1.30;;;0.80;;
79670;SDS011;69137;50.878;8.050;2023-11-19T04:15:52;0.93;;;0.70;;
79670;SDS011;69137;50.878;8.050;2023-11-19T04:18:17;2.67;;;1.02;;
79670;SDS011;69137;50.878;8.050;2023-11-19T04:20:43;7.13;;;1.00;;
79670;SDS011;69137;50.878;8.050;2023-11-19T04:23:08;2.13;;;1.30;;
79670;SDS011;69137;50.878;8.050;2023-11-19T04:25:34;3.72;;;0.82;;
79670;SDS011;69137;50.878;8.050;2023-11-19T04:28:00;2.53;;;0.90;;
79670;SDS011;69137;50.878;8.050;2023-11-19T04:30:26;2.03;;;0.77;;
79670;SDS011;69137;50.878;8.050;2023-11-19T04:32:51;2.60;;;1.15;;
79670;SDS011;69137;50.878;8.050;2023-11-19T04:35:16;1.48;;;1.10;;
79670;SDS011;69137;50.878;8.050;2023-11-19T04:37:44;2.05;;;1.20;;
79670;SDS011;69137;50.878;8.050;2023-11-19T04:40:09;3.10;;;1.40;;
79670;SDS011;69137;50.878;8.050;2023-11-19T04:42:37;1.75;;;0.77;;
79670;SDS011;69137;50.878;8.050;2023-11-19T04:45:05;1.77;;;0.88;;
79670;SDS011;69137;50.878;8.050;2023-11-19T04:47:32;7.13;;;1.10;;
79670;SDS011;69137;50.878;8.050;2023-11-19T04:49:59;2.05;;;1.10;;
79670;SDS011;69137;50.878;8.050;2023-11-19T04:52:24;1.55;;;0.90;;
79670;SDS011;69137;50.878;8.050;2023-11-19T04:54:50;0.93;;;0.73;;
79670;SDS011;69137;50.878;8.050;2023-11-19T04:57:15;2.08;;;1.13;;
79670;SDS011;69137;50.878;8.050;2023-11-19T04:59:41;1.60;;;0.75;;
79670;SDS011;69137;50.878;8.050;2023-11-19T05:02:08;6.93;;;1.40;;
79670;SDS011;69137;50.878;8.050;2023-11-19T05:04:33;2.45;;;1.30;;
79670;SDS011;69137;50.878;8.050;2023-11-19T05:06:59;2.60;;;1.10;;
79670;SDS011;69137;50.878;8.050;2023-11-19T05:09:24;2.50;;;1.17;;
79670;SDS011;69137;50.878;8.050;2023-11-19T05:11:49;6.35;;;1.30;;
79670;SDS011;69137;50.878;8.050;2023-11-19T05:14:15;4.40;;;1.42;;
79670;SDS011;69137;50.878;8.050;2023-11-19T05:16:41;4.82;;;1.80;;
79670;SDS011;69137;50.878;8.050;2023-11-19T05:19:07;4.63;;;1.40;;
79670;SDS011;69137;50.878;8.050;2023-11-19T05:21:34;3.97;;;1.58;;
79670;SDS011;69137;50.878;8.050;2023-11-19T05:23:59;4.95;;;1.38;;
79670;SDS011;69137;50.878;8.050;2023-11-19T05:26:25;2.95;;;1.83;;
79670;SDS011;69137;50.878;8.050;2023-11-19T05:28:51;4.88;;;1.30;;
79670;SDS011;69137;50.878;8.050;2023-11-19T05:31:17;3.20;;;1.48;;
79670;SDS011;69137;50.878;8.050;2023-11-19T05:33:43;2.97;;;1.10;;
79670;SDS011;69137;50.878;8.050;2023-11-19T05:36:10;2.83;;;1.35;;
79670;SDS011;69137;50.878;8.050;2023-11-19T05:38:37;2.88;;;1.27;;
79670;SDS011;69137;50.878;8.050;2023-11-19T05:41:03;3.83;;;1.23;;
79670;SDS011;69137;50.878;8.050;2023-11-19T05:43:29;2.25;;;1.27;;
79670;SDS011;69137;50.878;8.050;2023-11-19T05:45:55;4.55;;;1.45;;
79670;SDS011;69137;50.878;8.050;2023-11-19T05:48:20;3.30;;;1.50;;
79670;SDS011;69137;50.878;8.050;2023-11-19T05:50:46;4.43;;;1.33;;
79670;SDS011;69137;50.878;8.050;2023-11-19T05:53:12;4.32;;;1.52;;
79670;SDS011;69137;50.878;8.050;2023-11-19T05:55:39;3.00;;;1.50;;
79670;SDS011;69137;50.878;8.050;2023-11-19T05:58:11;3.83;;;1.17;;
79670;SDS011;69137;50.878;8.050;2023-11-19T06:00:38;4.10;;;1.40;;
79670;SDS011;69137;50.878;8.050;2023-11-19T06:03:05;4.88;;;1.38;;
79670;SDS011;69137;50.878;8.050;2023-11-19T06:05:31;3.85;;;1.55;;
79670;SDS011;69137;50.878;8.050;2023-11-19T06:07:56;9.57;;;1.52;;
79670;SDS011;69137;50.878;8.050;2023-11-19T06:10:22;4.68;;;1.88;;
79670;SDS011;69137;50.878;8.050;2023-11-19T06:12:53;5.32;;;1.50;;
79670;SDS011;69137;50.878;8.050;2023-11-19T06:15:21;8.00;;;1.73;;
79670;SDS011;69137;50.878;8.050;2023-11-19T06:17:46;2.83;;;1.52;;
79670;SDS011;69137;50.878;8.050;2023-11-19T06:20:12;17.05;;;3.45;;
79670;SDS011;69137;50.878;8.050;2023-11-19T06:22:39;7.43;;;1.98;;
79670;SDS011;69137;50.878;8.050;2023-11-19T06:25:07;5.45;;;1.70;;
79670;SDS011;69137;50.878;8.050;2023-11-19T06:27:36;3.40;;;1.45;;
79670;SDS011;69137;50.878;8.050;2023-11-19T06:30:01;11.65;;;2.30;;
79670;SDS011;69137;50.878;8.050;2023-11-19T06:32:27;7.55;;;1.48;;
79670;SDS011;69137;50.878;8.050;2023-11-19T06:34:53;7.88;;;1.75;;
79670;SDS011;69137;50.878;8.050;2023-11-19T06:37:19;7.38;;;1.85;;
79670;SDS011;69137;50.878;8.050;2023-11-19T06:39:44;9.43;;;2.13;;
79670;SDS011;69137;50.878;8.050;2023-11-19T06:42:09;9.77;;;2.22;;
79670;SDS011;69137;50.878;8.050;2023-11-19T06:44:35;7.13;;;2.72;;
79670;SDS011;69137;50.878;8.050;2023-11-19T06:47:00;4.35;;;1.65;;
79670;SDS011;69137;50.878;8.050;2023-11-19T06:49:26;11.90;;;2.45;;
79670;SDS011;69137;50.878;8.050;2023-11-19T06:51:51;6.97;;;2.15;;
79670;SDS011;69137;50.878;8.050;2023-11-19T06:54:16;5.75;;;1.88;;
79670;SDS011;69137;50.878;8.050;2023-11-19T06:56:42;12.00;;;2.47;;
79670;SDS011;69137;50.878;8.050;2023-11-19T06:59:10;8.43;;;2.33;;
79670;SDS011;69137;50.878;8.050;2023-11-19T07:01:36;6.18;;;1.73;;
79670;SDS011;69137;50.878;8.050;2023-11-19T07:04:02;10.07;;;2.17;;
79670;SDS011;69137;50.878;8.050;2023-11-19T07:06:34;8.50;;;2.25;;
79670;SDS011;69137;50.878;8.050;2023-11-19T07:09:01;11.00;;;2.63;;
79670;SDS011;69137;50.878;8.050;2023-11-19T07:11:34;9.55;;;2.83;;
79670;SDS011;69137;50.878;8.050;2023-11-19T07:14:01;11.18;;;3.25;;
79670;SDS011;69137;50.878;8.050;2023-11-19T07:16:27;10.35;;;2.20;;
79670;SDS011;69137;50.878;8.050;2023-11-19T07:18:52;12.02;;;2.85;;
79670;SDS011;69137;50.878;8.050;2023-11-19T07:21:17;9.25;;;2.55;;
79670;SDS011;69137;50.878;8.050;2023-11-19T07:23:44;12.35;;;2.40;;
79670;SDS011;69137;50.878;8.050;2023-11-19T07:26:10;22.48;;;3.55;;
79670;SDS011;69137;50.878;8.050;2023-11-19T07:28:35;13.82;;;2.75;;
79670;SDS011;69137;50.878;8.050;2023-11-19T07:31:01;11.68;;;3.15;;
79670;SDS011;69137;50.878;8.050;2023-11-19T07:33:27;12.30;;;2.60;;
79670;SDS011;69137;50.878;8.050;2023-11-19T07:35:53;14.20;;;2.92;;
79670;SDS011;69137;50.878;8.050;2023-11-19T07:38:18;9.90;;;3.08;;
79670;SDS011;69137;50.878;8.050;2023-11-19T07:40:43;16.77;;;3.10;;
79670;SDS011;69137;50.878;8.050;2023-11-19T07:43:09;7.13;;;2.35;;
79670;SDS011;69137;50.878;8.050;2023-11-19T07:45:34;14.00;;;3.13;;
79670;SDS011;69137;50.878;8.050;2023-11-19T07:48:00;12.15;;;3.25;;
79670;SDS011;69137;50.878;8.050;2023-11-19T07:50:26;14.73;;;2.88;;
79670;SDS011;69137;50.878;8.050;2023-11-19T07:52:51;15.95;;;3.63;;
79670;SDS011;69137;50.878;8.050;2023-11-19T07:55:17;12.43;;;2.88;;
79670;SDS011;69137;50.878;8.050;2023-11-19T07:57:43;7.38;;;2.50;;
79670;SDS011;69137;50.878;8.050;2023-11-19T08:00:08;12.43;;;3.00;;
79670;SDS011;69137;50.878;8.050;2023-11-19T08:02:37;15.73;;;2.70;;
79670;SDS011;69137;50.878;8.050;2023-11-19T08:05:03;11.70;;;2.88;;
79670;SDS011;69137;50.878;8.050;2023-11-19T08:07:29;13.23;;;2.72;;
79670;SDS011;69137;50.878;8.050;2023-11-19T08:09:54;14.93;;;3.03;;
79670;SDS011;69137;50.878;8.050;2023-11-19T08:12:20;9.10;;;3.78;;
79670;SDS011;69137;50.878;8.050;2023-11-19T08:14:45;9.95;;;3.20;;
79670;SDS011;69137;50.878;8.050;2023-11-19T08:17:11;14.73;;;3.28;;
79670;SDS011;69137;50.878;8.050;2023-11-19T08:19:36;14.48;;;2.35;;
79670;SDS011;69137;50.878;8.050;2023-11-19T08:22:01;9.50;;;2.22;;
79670;SDS011;69137;50.878;8.050;2023-11-19T08:24:27;9.45;;;2.15;;
79670;SDS011;69137;50.878;8.050;2023-11-19T08:26:53;13.70;;;2.65;;
79670;SDS011;69137;50.878;8.050;2023-11-19T08:29:19;11.27;;;2.47;;
79670;SDS011;69137;50.878;8.050;2023-11-19T08:31:44;12.57;;;2.65;;
79670;SDS011;69137;50.878;8.050;2023-11-19T08:34:11;7.28;;;2.35;;
79670;SDS011;69137;50.878;8.050;2023-11-19T08:36:36;11.00;;;2.58;;
79670;SDS011;69137;50.878;8.050;2023-11-19T08:39:02;15.52;;;3.20;;
79670;SDS011;69137;50.878;8.050;2023-11-19T08:41:28;9.77;;;2.72;;
79670;SDS011;69137;50.878;8.050;2023-11-19T08:43:53;6.35;;;2.28;;
79670;SDS011;69137;50.878;8.050;2023-11-19T08:46:19;13.50;;;3.13;;
79670;SDS011;69137;50.878;8.050;2023-11-19T08:48:45;14.63;;;3.30;;
79670;SDS011;69137;50.878;8.050;2023-11-19T08:51:11;15.02;;;2.83;;
79670;SDS011;69137;50.878;8.050;2023-11-19T08:53:37;17.05;;;4.28;;
79670;SDS011;69137;50.878;8.050;2023-11-19T08:56:03;20.48;;;3.25;;
79670;SDS011;69137;50.878;8.050;2023-11-19T08:58:29;13.45;;;2.95;;
79670;SDS011;69137;50.878;8.050;2023-11-19T09:00:54;12.45;;;3.30;;
79670;SDS011;69137;50.878;8.050;2023-11-19T09:03:20;18.17;;;3.45;;
79670;SDS011;69137;50.878;8.050;2023-11-19T09:05:45;13.93;;;3.05;;
79670;SDS011;69137;50.878;8.050;2023-11-19T09:08:11;18.38;;;3.72;;
79670;SDS011;69137;50.878;8.050;2023-11-19T09:10:37;12.57;;;3.38;;
79670;SDS011;69137;50.878;8.050;2023-11-19T09:13:02;9.88;;;3.40;;
79670;SDS011;69137;50.878;8.050;2023-11-19T09:15:29;12.40;;;3.03;;
79670;SDS011;69137;50.878;8.050;2023-11-19T09:17:54;17.13;;;3.25;;
79670;SDS011;69137;50.878;8.050;2023-11-19T09:20:20;14.90;;;3.72;;
79670;SDS011;69137;50.878;8.050;2023-11-19T09:22:45;12.75;;;2.97;;
79670;SDS011;69137;50.878;8.050;2023-11-19T09:25:11;11.80;;;3.13;;
79670;SDS011;69137;50.878;8.050;2023-11-19T09:27:36;17.75;;;3.17;;
79670;SDS011;69137;50.878;8.050;2023-11-19T09:30:02;19.13;;;4.82;;
79670;SDS011;69137;50.878;8.050;2023-11-19T09:32:29;7.20;;;2.25;;
79670;SDS011;69137;50.878;8.050;2023-11-19T09:34:54;9.50;;;2.75;;
79670;SDS011;69137;50.878;8.050;2023-11-19T09:37:19;14.20;;;2.88;;
79670;SDS011;69137;50.878;8.050;2023-11-19T09:39:45;10.27;;;3.53;;
79670;SDS011;69137;50.878;8.050;2023-11-19T09:42:11;12.48;;;2.58;;
79670;SDS011;69137;50.878;8.050;2023-11-19T09:44:40;11.43;;;2.80;;
79670;SDS011;69137;50.878;8.050;2023-11-19T09:47:08;10.80;;;2.90;;
79670;SDS011;69137;50.878;8.050;2023-11-19T09:49:35;12.82;;;2.70;;
79670;SDS011;69137;50.878;8.050;2023-11-19T09:52:01;13.57;;;3.35;;
79670;SDS011;69137;50.878;8.050;2023-11-19T09:54:27;18.02;;;3.50;;
79670;SDS011;69137;50.878;8.050;2023-11-19T09:56:54;16.58;;;3.40;;
79670;SDS011;69137;50.878;8.050;2023-11-19T09:59:27;12.30;;;3.55;;
79670;SDS011;69137;50.878;8.050;2023-11-19T10:01:54;12.60;;;3.40;;
79670;SDS011;69137;50.878;8.050;2023-11-19T10:04:21;13.05;;;2.85;;
79670;SDS011;69137;50.878;8.050;2023-11-19T10:06:48;9.43;;;2.50;;
79670;SDS011;69137;50.878;8.050;2023-11-19T10:09:15;16.67;;;3.65;;
79670;SDS011;69137;50.878;8.050;2023-11-19T10:11:40;21.70;;;3.45;;
79670;SDS011;69137;50.878;8.050;2023-11-19T10:14:06;11.30;;;2.88;;
79670;SDS011;69137;50.878;8.050;2023-11-19T10:16:31;9.85;;;2.33;;
79670;SDS011;69137;50.878;8.050;2023-11-19T10:21:25;11.00;;;2.73;;
79670;SDS011;69137;50.878;8.050;2023-11-19T10:23:51;12.80;;;2.70;;
79670;SDS011;69137;50.878;8.050;2023-11-19T10:26:18;13.65;;;2.95;;
79670;SDS011;69137;50.878;8.050;2023-11-19T10:28:45;17.70;;;3.58;;
79670;SDS011;69137;50.878;8.050;2023-11-19T10:31:15;16.02;;;3.15;;
79670;SDS011;69137;50.878;8.050;2023-11-19T10:33:41;18.50;;;3.03;;
79670;SDS011;69137;50.878;8.050;2023-11-19T10:36:08;18.85;;;4.75;;
79670;SDS011;69137;50.878;8.050;2023-11-19T10:38:34;13.25;;;2.30;;
79670;SDS011;69137;50.878;8.050;2023-11-19T10:41:00;12.88;;;2.63;;
79670;SDS011;69137;50.878;8.050;2023-11-19T10:43:25;19.00;;;3.65;;
79670;SDS011;69137;50.878;8.050;2023-11-19T10:45:51;14.93;;;3.20;;
79670;SDS011;69137;50.878;8.050;2023-11-19T10:48:17;11.23;;;3.10;;
79670;SDS011;69137;50.878;8.050;2023-11-19T10:50:43;13.85;;;3.72;;
79670;SDS011;69137;50.878;8.050;2023-11-19T10:53:11;8.77;;;2.85;;
79670;SDS011;69137;50.878;8.050;2023-11-19T10:55:41;10.77;;;3.38;;
79670;SDS011;69137;50.878;8.050;2023-11-19T10:58:09;10.70;;;2.33;;
79670;SDS011;69137;50.878;8.050;2023-11-19T11:00:39;21.73;;;4.53;;
79670;SDS011;69137;50.878;8.050;2023-11-19T11:03:14;13.80;;;3.38;;
79670;SDS011;69137;50.878;8.050;2023-11-19T11:05:42;14.70;;;3.05;;
79670;SDS011;69137;50.878;8.050;2023-11-19T11:08:07;15.48;;;3.40;;
79670;SDS011;69137;50.878;8.050;2023-11-19T11:10:35;22.60;;;3.20;;
79670;SDS011;69137;50.878;8.050;2023-11-19T11:13:06;19.58;;;3.47;;
79670;SDS011;69137;50.878;8.050;2023-11-19T11:15:32;11.77;;;2.58;;
79670;SDS011;69137;50.878;8.050;2023-11-19T11:18:00;12.25;;;3.13;;
79670;SDS011;69137;50.878;8.050;2023-11-19T11:20:27;12.38;;;2.85;;
79670;SDS011;69137;50.878;8.050;2023-11-19T11:23:01;7.68;;;2.50;;
79670;SDS011;69137;50.878;8.050;2023-11-19T11:28:48;11.15;;;2.85;;
79670;SDS011;69137;50.878;8.050;2023-11-19T11:34:57;19.30;;;3.60;;
79670;SDS011;69137;50.878;8.050;2023-11-19T11:36:58;19.05;;;3.42;;
79670;SDS011;69137;50.878;8.050;2023-11-19T11:39:35;13.00;;;3.00;;
79670;SDS011;69137;50.878;8.050;2023-11-19T11:52:34;36.67;;;9.23;;
79670;SDS011;69137;50.878;8.050;2023-11-19T11:56:08;28.63;;;9.90;;
79670;SDS011;69137;50.878;8.050;2023-11-19T11:58:17;18.45;;;4.70;;
79670;SDS011;69137;50.878;8.050;2023-11-19T12:00:43;16.75;;;5.68;;
79670;SDS011;69137;50.878;8.050;2023-11-19T12:03:08;11.75;;;3.38;;
79670;SDS011;69137;50.878;8.050;2023-11-19T12:05:43;14.25;;;3.28;;
79670;SDS011;69137;50.878;8.050;2023-11-19T12:08:10;8.35;;;2.53;;
79670;SDS011;69137;50.878;8.050;2023-11-19T12:13:14;20.02;;;4.53;;
79670;SDS011;69137;50.878;8.050;2023-11-19T12:18:23;13.25;;;3.90;;
79670;SDS011;69137;50.878;8.050;2023-11-19T12:20:49;24.85;;;4.40;;
79670;SDS011;69137;50.878;8.050;2023-11-19T12:23:15;21.33;;;3.70;;
79670;SDS011;69137;50.878;8.050;2023-11-19T12:25:40;23.27;;;5.00;;
79670;SDS011;69137;50.878;8.050;2023-11-19T12:28:11;11.55;;;2.70;;
79670;SDS011;69137;50.878;8.050;2023-11-19T12:30:38;21.40;;;4.50;;
79670;SDS011;69137;50.878;8.050;2023-11-19T12:33:07;15.13;;;4.05;;
79670;SDS011;69137;50.878;8.050;2023-11-19T12:35:38;19.02;;;3.20;;
79670;SDS011;69137;50.878;8.050;2023-11-19T12:38:07;13.23;;;4.60;;
79670;SDS011;69137;50.878;8.050;2023-11-19T12:40:34;8.00;;;3.17;;
79670;SDS011;69137;50.878;8.050;2023-11-19T12:42:59;7.32;;;2.53;;
79670;SDS011;69137;50.878;8.050;2023-11-19T12:45:34;13.93;;;2.70;;
79670;SDS011;69137;50.878;8.050;2023-11-19T12:48:09;10.95;;;3.08;;
79670;SDS011;69137;50.878;8.050;2023-11-19T12:53:19;6.38;;;2.00;;
79670;SDS011;69137;50.878;8.050;2023-11-19T12:55:45;13.48;;;2.55;;
79670;SDS011;69137;50.878;8.050;2023-11-19T12:58:10;9.70;;;2.40;;
79670;SDS011;69137;50.878;8.050;2023-11-19T13:00:58;10.02;;;2.63;;
79670;SDS011;69137;50.878;8.050;2023-11-19T13:03:31;15.10;;;2.63;;
79670;SDS011;69137;50.878;8.050;2023-11-19T13:06:07;9.82;;;2.42;;
79670;SDS011;69137;50.878;8.050;2023-11-19T13:08:36;11.13;;;2.92;;
79670;SDS011;69137;50.878;8.050;2023-11-19T13:11:03;8.68;;;2.50;;
79670;SDS011;69137;50.878;8.050;2023-11-19T13:13:28;12.98;;;2.70;;
79670;SDS011;69137;50.878;8.050;2023-11-19T13:16:01;9.43;;;2.00;;
79670;SDS011;69137;50.878;8.050;2023-11-19T13:18:30;12.65;;;3.10;;
79670;SDS011;69137;50.878;8.050;2023-11-19T13:20:56;14.32;;;3.05;;
79670;SDS011;69137;50.878;8.050;2023-11-19T13:23:22;13.23;;;2.50;;
79670;SDS011;69137;50.878;8.050;2023-11-19T13:25:48;10.05;;;2.70;;
79670;SDS011;69137;50.878;8.050;2023-11-19T13:28:14;19.35;;;3.95;;
79670;SDS011;69137;50.878;8.050;2023-11-19T13:30:39;12.60;;;3.88;;
79670;SDS011;69137;50.878;8.050;2023-11-19T13:33:04;9.23;;;2.25;;
79670;SDS011;69137;50.878;8.050;2023-11-19T13:35:30;12.60;;;2.30;;
79670;SDS011;69137;50.878;8.050;2023-11-19T13:37:55;12.00;;;3.28;;
79670;SDS011;69137;50.878;8.050;2023-11-19T13:40:21;9.20;;;2.80;;
79670;SDS011;69137;50.878;8.050;2023-11-19T13:42:47;12.27;;;2.90;;
79670;SDS011;69137;50.878;8.050;2023-11-19T13:45:13;12.15;;;2.92;;
79670;SDS011;69137;50.878;8.050;2023-11-19T13:50:13;13.63;;;2.70;;
79670;SDS011;69137;50.878;8.050;2023-11-19T13:52:40;12.85;;;2.85;;
79670;SDS011;69137;50.878;8.050;2023-11-19T13:55:08;9.43;;;3.28;;
79670;SDS011;69137;50.878;8.050;2023-11-19T13:57:41;14.45;;;3.15;;
79670;SDS011;69137;50.878;8.050;2023-11-19T14:00:08;15.48;;;3.85;;
79670;SDS011;69137;50.878;8.050;2023-11-19T14:02:41;6.78;;;2.35;;
79670;SDS011;69137;50.878;8.050;2023-11-19T14:05:07;6.97;;;2.60;;
79670;SDS011;69137;50.878;8.050;2023-11-19T14:07:33;6.13;;;2.17;;
79670;SDS011;69137;50.878;8.050;2023-11-19T14:09:59;15.23;;;3.03;;
79670;SDS011;69137;50.878;8.050;2023-11-19T14:12:25;8.93;;;2.38;;
79670;SDS011;69137;50.878;8.050;2023-11-19T14:14:50;16.83;;;3.15;;
79670;SDS011;69137;50.878;8.050;2023-11-19T14:17:16;6.43;;;2.42;;
79670;SDS011;69137;50.878;8.050;2023-11-19T14:19:42;11.38;;;2.92;;
79670;SDS011;69137;50.878;8.050;2023-11-19T14:22:08;9.55;;;2.75;;
79670;SDS011;69137;50.878;8.050;2023-11-19T14:24:33;11.20;;;2.70;;
79670;SDS011;69137;50.878;8.050;2023-11-19T14:26:59;6.40;;;2.10;;
79670;SDS011;69137;50.878;8.050;2023-11-19T14:29:25;13.80;;;2.85;;
79670;SDS011;69137;50.878;8.050;2023-11-19T14:31:51;16.73;;;2.72;;
79670;SDS011;69137;50.878;8.050;2023-11-19T14:34:19;7.60;;;2.03;;
79670;SDS011;69137;50.878;8.050;2023-11-19T14:36:44;14.07;;;3.03;;
79670;SDS011;69137;50.878;8.050;2023-11-19T14:39:10;5.63;;;1.85;;
79670;SDS011;69137;50.878;8.050;2023-11-19T14:41:35;11.50;;;3.15;;
79670;SDS011;69137;50.878;8.050;2023-11-19T14:44:01;19.63;;;3.97;;
79670;SDS011;69137;50.878;8.050;2023-11-19T14:46:28;6.90;;;2.28;;
79670;SDS011;69137;50.878;8.050;2023-11-19T14:48:54;13.57;;;3.33;;
79670;SDS011;69137;50.878;8.050;2023-11-19T14:51:19;12.35;;;3.05;;
79670;SDS011;69137;50.878;8.050;2023-11-19T14:53:45;8.27;;;2.10;;
79670;SDS011;69137;50.878;8.050;2023-11-19T14:56:11;11.75;;;2.70;;
79670;SDS011;69137;50.878;8.050;2023-11-19T15:01:05;15.20;;;3.13;;
79670;SDS011;69137;50.878;8.050;2023-11-19T15:03:32;9.50;;;3.15;;
79670;SDS011;69137;50.878;8.050;2023-11-19T15:05:58;13.48;;;2.90;;
79670;SDS011;69137;50.878;8.050;2023-11-19T15:08:23;12.48;;;2.33;;
79670;SDS011;69137;50.878;8.050;2023-11-19T15:10:49;7.80;;;2.45;;
79670;SDS011;69137;50.878;8.050;2023-11-19T15:13:14;12.73;;;3.58;;
79670;SDS011;69137;50.878;8.050;2023-11-19T15:15:40;16.35;;;2.72;;